Time;durP1;ratioP1;P1;durP2;ratioP2;P2;SDS_P1;SDS_P2;PMS_P1;PMS_P2;Temp;Humidity;BMP_temperature;BMP_pressure;BME280_temperature;BME280_humidity;BME280_pressure;Samples;Min_cycle;Max_cycle;Signal;HPM_P1;HPM_P2
2021/03/06 00:01:51;;;;;;;7.20;5.90;;;0.30;99.90;;;;;;6201689;23;20395;-94
2021/03/06 00:04:18;;;;;;;9.10;6.13;;;0.30;99.90;;;;;;6164628;23;20943;-95
2021/03/06 00:06:47;;;;;;;7.77;5.70;;;0.30;99.90;;;;;;6165166;23;20906;-94
2021/03/06 00:09:14;;;;;;;11.33;6.90;;;0.30;99.90;;;;;;6164947;23;21149;-94
2021/03/06 00:11:41;;;;;;;7.87;7.00;;;0.30;99.90;;;;;;6164979;23;20518;-95
2021/03/06 00:14:09;;;;;;;6.63;5.73;;;0.30;99.90;;;;;;6164995;23;20470;-94
2021/03/06 00:16:36;;;;;;;7.37;5.50;;;0.30;99.90;;;;;;6169512;23;20415;-94
2021/03/06 00:19:03;;;;;;;7.83;6.30;;;0.30;99.90;;;;;;6175176;23;20416;-94
2021/03/06 00:21:31;;;;;;;15.67;6.23;;;0.30;99.90;;;;;;6166447;23;20498;-95
2021/03/06 00:23:59;;;;;;;9.60;5.77;;;0.30;99.90;;;;;;6165126;23;20433;-94
2021/03/06 00:26:26;;;;;;;11.80;6.10;;;0.30;99.90;;;;;;6166040;23;20477;-94
2021/03/06 00:28:53;;;;;;;12.37;6.10;;;0.30;99.90;;;;;;6164870;23;20415;-94
2021/03/06 00:31:20;;;;;;;11.03;5.97;;;0.30;99.90;;;;;;6164944;23;20427;-94
2021/03/06 00:33:48;;;;;;;11.23;5.40;;;0.30;99.90;;;;;;6165109;23;20412;-94
2021/03/06 00:36:15;;;;;;;8.20;5.17;;;0.30;99.90;;;;;;6166060;23;20795;-94
2021/03/06 00:38:42;;;;;;;5.80;4.40;;;0.20;99.90;;;;;;6165260;23;20474;-94
2021/03/06 00:41:11;;;;;;;6.23;5.60;;;0.20;99.90;;;;;;6164905;23;20519;-94
2021/03/06 00:43:38;;;;;;;9.60;5.67;;;0.30;99.90;;;;;;6165164;23;20418;-94
2021/03/06 00:46:05;;;;;;;6.80;4.83;;;0.20;99.90;;;;;;6165031;23;20416;-94
2021/03/06 00:48:33;;;;;;;7.27;5.30;;;0.30;99.90;;;;;;6165169;23;20418;-95
2021/03/06 00:51:01;;;;;;;10.27;6.10;;;0.20;99.90;;;;;;6164591;23;20442;-95
2021/03/06 00:53:29;;;;;;;7.77;5.50;;;0.20;99.90;;;;;;6165157;23;20486;-94
2021/03/06 00:55:59;;;;;;;8.43;4.47;;;0.20;99.90;;;;;;6164383;23;20754;-94
2021/03/06 00:58:27;;;;;;;10.20;6.30;;;0.20;99.90;;;;;;6164480;23;20419;-94
2021/03/06 01:00:56;;;;;;;6.93;4.90;;;0.10;99.90;;;;;;6186123;23;20486;-94
2021/03/06 01:03:24;;;;;;;7.50;4.83;;;0.20;99.90;;;;;;6166567;23;20426;-95
2021/03/06 01:05:53;;;;;;;6.63;4.60;;;0.10;99.90;;;;;;6166662;23;20412;-95
2021/03/06 01:08:20;;;;;;;8.73;5.40;;;0.10;99.90;;;;;;6164210;23;20419;-95
2021/03/06 01:10:48;;;;;;;9.93;5.00;;;0.10;99.90;;;;;;6164075;23;20489;-95
2021/03/06 01:13:15;;;;;;;10.33;5.00;;;0.10;99.90;;;;;;6165776;23;20506;-94
2021/03/06 01:15:44;;;;;;;7.67;5.00;;;0.10;99.90;;;;;;6164879;23;20496;-95
2021/03/06 01:18:12;;;;;;;9.77;5.73;;;0.10;99.90;;;;;;6165474;23;20416;-95
2021/03/06 01:20:40;;;;;;;8.27;4.70;;;0.10;99.90;;;;;;6164490;23;20467;-95
2021/03/06 01:23:08;;;;;;;8.93;4.60;;;0.10;99.90;;;;;;6164414;23;20486;-94
2021/03/06 01:25:35;;;;;;;6.73;4.83;;;0.10;99.90;;;;;;6164697;23;20463;-94
2021/03/06 01:28:03;;;;;;;7.40;4.60;;;0.10;99.90;;;;;;6165125;23;20446;-94
2021/03/06 01:30:30;;;;;;;6.57;4.43;;;0.10;99.90;;;;;;6164818;23;20836;-95
2021/03/06 01:32:59;;;;;;;6.10;5.00;;;0.10;99.90;;;;;;6164970;23;20416;-94
2021/03/06 01:35:27;;;;;;;10.53;4.50;;;0.10;99.90;;;;;;6164635;23;20416;-95
2021/03/06 01:37:55;;;;;;;6.80;4.47;;;0.10;99.90;;;;;;6164329;23;20726;-94
2021/03/06 01:40:27;;;;;;;8.47;5.30;;;0.00;99.90;;;;;;6164863;23;20493;-95
2021/03/06 01:42:54;;;;;;;7.53;4.67;;;0.10;99.90;;;;;;6201803;23;20387;-95
2021/03/06 01:45:22;;;;;;;8.50;4.70;;;0.10;99.90;;;;;;6167999;23;20771;-95
2021/03/06 01:47:49;;;;;;;16.40;4.70;;;0.10;99.90;;;;;;6168826;23;20411;-95
2021/03/06 01:50:21;;;;;;;5.40;4.40;;;0.10;99.90;;;;;;6164987;23;21017;-95
2021/03/06 01:52:49;;;;;;;7.87;4.23;;;0.10;99.90;;;;;;6165934;23;20407;-95
2021/03/06 01:55:21;;;;;;;5.30;3.90;;;0.10;99.90;;;;;;6165596;23;20489;-95
2021/03/06 01:57:49;;;;;;;10.77;4.40;;;0.10;99.90;;;;;;6165032;23;20411;-95
2021/03/06 02:00:27;;;;;;;6.70;4.40;;;0.10;99.90;;;;;;6181777;23;20426;-94
2021/03/06 02:02:56;;;;;;;8.23;4.63;;;0.10;99.90;;;;;;6188812;23;20407;-94
2021/03/06 02:05:24;;;;;;;7.77;4.20;;;0.10;99.90;;;;;;6176049;23;20843;-94
2021/03/06 02:07:53;;;;;;;5.37;3.47;;;0.20;99.90;;;;;;6166336;23;20407;-95
2021/03/06 02:10:25;;;;;;;6.27;4.63;;;0.20;99.90;;;;;;6165822;23;20440;-95
2021/03/06 02:13:01;;;;;;;8.83;4.37;;;0.20;99.90;;;;;;6166872;23;20899;-95
2021/03/06 02:15:40;;;;;;;8.20;4.30;;;0.20;99.90;;;;;;6167090;23;20407;-94
2021/03/06 02:18:13;;;;;;;8.33;4.07;;;0.30;99.90;;;;;;6167455;23;20400;-94
2021/03/06 02:20:49;;;;;;;10.03;4.90;;;0.30;99.90;;;;;;6169300;23;20446;-95
2021/03/06 02:24:04;;;;;;;5.77;3.90;;;0.30;99.90;;;;;;6178961;23;20451;-93
2021/03/06 02:26:50;;;;;;;6.13;3.97;;;0.30;99.90;;;;;;6168943;23;20489;-96
2021/03/06 02:29:51;;;;;;;8.93;4.90;;;0.40;99.90;;;;;;6203065;23;20391;-95
2021/03/06 02:32:22;;;;;;;5.70;3.63;;;0.40;99.90;;;;;;6166898;23;20515;-95
2021/03/06 02:34:52;;;;;;;5.93;4.07;;;0.40;99.90;;;;;;6167018;23;20415;-95
2021/03/06 02:37:24;;;;;;;4.07;3.67;;;0.50;99.90;;;;;;6167297;23;20411;-95
2021/03/06 02:39:55;;;;;;;11.13;4.60;;;0.50;99.90;;;;;;6166554;23;20443;-95
2021/03/06 02:42:26;;;;;;;9.50;4.80;;;0.50;99.90;;;;;;6167171;23;20412;-95
2021/03/06 02:44:56;;;;;;;7.00;4.43;;;0.50;99.90;;;;;;6168119;23;20430;-95
2021/03/06 02:47:24;;;;;;;7.53;4.40;;;0.60;99.90;;;;;;6169529;23;20411;-95
2021/03/06 02:49:55;;;;;;;7.00;4.10;;;0.60;99.90;;;;;;6168105;23;20440;-95
2021/03/06 02:52:23;;;;;;;4.87;3.97;;;0.60;99.90;;;;;;6168975;23;20521;-95
2021/03/06 02:54:54;;;;;;;6.43;3.33;;;0.60;99.90;;;;;;6168454;23;20412;-95
2021/03/06 02:57:41;;;;;;;5.17;3.63;;;0.70;99.90;;;;;;6168314;23;20479;-95
2021/03/06 03:00:35;;;;;;;10.90;4.73;;;0.80;99.90;;;;;;6167826;23;20439;-94
2021/03/06 03:03:16;;;;;;;7.33;3.83;;;0.80;99.90;;;;;;6169006;23;20430;-95
2021/03/06 03:05:52;;;;;;;8.13;3.73;;;0.80;99.90;;;;;;6169813;23;20427;-95
2021/03/06 03:08:26;;;;;;;9.27;4.33;;;0.80;99.90;;;;;;6168436;23;20408;-95
2021/03/06 03:10:56;;;;;;;9.10;4.00;;;0.90;99.90;;;;;;6168344;23;20471;-95
2021/03/06 03:13:28;;;;;;;5.80;3.80;;;0.90;99.90;;;;;;6168745;23;20415;-95
2021/03/06 03:16:03;;;;;;;5.57;4.13;;;0.90;99.90;;;;;;6168003;23;20875;-95
2021/03/06 03:18:37;;;;;;;6.80;3.90;;;1.00;99.90;;;;;;6168630;23;20407;-95
2021/03/06 03:21:08;;;;;;;8.43;4.73;;;1.00;99.90;;;;;;6168756;23;20449;-95
2021/03/06 03:23:40;;;;;;;5.87;3.67;;;1.00;99.90;;;;;;6168458;23;20462;-95
2021/03/06 03:26:11;;;;;;;6.57;3.40;;;1.00;99.90;;;;;;6167775;23;20424;-95
2021/03/06 03:28:44;;;;;;;8.40;4.13;;;1.00;99.90;;;;;;6168167;23;20407;-95
2021/03/06 03:31:13;;;;;;;6.47;4.27;;;1.10;99.90;;;;;;6168317;23;20490;-95
2021/03/06 03:33:42;;;;;;;5.30;4.00;;;1.10;99.90;;;;;;6167940;23;20508;-95
2021/03/06 03:36:11;;;;;;;7.70;4.47;;;1.10;99.90;;;;;;6167660;23;20467;-95
2021/03/06 03:38:39;;;;;;;5.80;3.63;;;1.10;99.90;;;;;;6171302;23;20426;-95
2021/03/06 03:41:11;;;;;;;5.87;4.20;;;1.10;99.90;;;;;;6181802;23;20436;-94
2021/03/06 03:43:40;;;;;;;9.07;4.07;;;1.20;99.90;;;;;;6190294;23;20419;-92
2021/03/06 03:46:07;;;;;;;7.77;3.60;;;1.20;99.90;;;;;;6189166;23;20473;-95
2021/03/06 03:48:37;;;;;;;6.13;3.87;;;1.20;99.90;;;;;;6178265;23;20415;-95
2021/03/06 03:51:05;;;;;;;4.60;4.00;;;1.30;99.90;;;;;;6169596;23;20444;-95
2021/03/06 03:53:33;;;;;;;6.70;4.50;;;1.20;99.90;;;;;;6168485;23;20435;-95
2021/03/06 03:56:02;;;;;;;5.50;3.63;;;1.30;99.90;;;;;;6168621;23;20411;-95
2021/03/06 03:58:30;;;;;;;6.03;3.67;;;1.30;99.90;;;;;;6168675;23;20416;-95
2021/03/06 04:00:57;;;;;;;6.30;4.33;;;1.30;99.90;;;;;;6168805;23;20439;-95
2021/03/06 04:03:25;;;;;;;6.47;4.03;;;1.40;99.90;;;;;;6168364;23;20419;-95
2021/03/06 04:05:54;;;;;;;7.78;4.22;;;1.40;99.90;;;;;;6168350;23;20469;-95
2021/03/06 04:08:21;;;;;;;5.00;3.60;;;1.50;99.90;;;;;;6168393;23;20168;-94
2021/03/06 04:10:48;;;;;;;6.93;4.00;;;1.50;99.90;;;;;;6168466;23;20433;-95
2021/03/06 04:13:17;;;;;;;9.00;4.63;;;1.60;99.90;;;;;;6167773;23;20718;-95
2021/03/06 04:15:44;;;;;;;6.40;4.60;;;1.60;99.90;;;;;;6167272;23;20418;-95
2021/03/06 04:18:11;;;;;;;8.30;4.87;;;1.60;99.90;;;;;;6167555;23;20643;-95
2021/03/06 04:20:38;;;;;;;5.23;3.87;;;1.70;99.90;;;;;;6167093;23;20965;-95
2021/03/06 04:23:06;;;;;;;5.83;4.37;;;1.70;99.90;;;;;;6167037;23;20424;-95
2021/03/06 04:25:34;;;;;;;7.83;4.80;;;1.70;99.90;;;;;;6167208;23;20528;-95
2021/03/06 04:28:01;;;;;;;6.23;4.63;;;1.70;99.90;;;;;;6167752;23;20467;-95
2021/03/06 04:30:29;;;;;;;7.83;4.03;;;1.70;99.90;;;;;;6167978;23;20443;-95
2021/03/06 04:32:58;;;;;;;5.87;4.07;;;1.70;99.90;;;;;;6168409;23;20466;-95
2021/03/06 04:35:25;;;;;;;7.57;4.13;;;1.70;99.90;;;;;;6168753;23;20445;-95
2021/03/06 04:37:53;;;;;;;5.13;4.40;;;1.80;99.90;;;;;;6169085;23;20422;-95
2021/03/06 04:40:22;;;;;;;8.40;4.27;;;1.80;99.90;;;;;;6169614;23;20447;-95
2021/03/06 04:42:49;;;;;;;6.93;3.73;;;1.80;99.90;;;;;;6168537;23;20432;-95
2021/03/06 04:45:16;;;;;;;6.00;4.50;;;1.80;99.90;;;;;;6169247;23;20452;-96
2021/03/06 04:47:45;;;;;;;4.67;4.17;;;1.80;99.90;;;;;;6170082;23;20417;-95
2021/03/06 04:50:14;;;;;;;4.80;4.30;;;1.80;99.90;;;;;;6169034;23;20444;-96
2021/03/06 04:52:41;;;;;;;4.07;3.60;;;1.80;99.90;;;;;;6187287;23;20397;-95
2021/03/06 04:55:10;;;;;;;4.83;3.80;;;1.80;99.90;;;;;;6170882;23;20475;-95
2021/03/06 04:57:38;;;;;;;4.60;3.80;;;1.90;99.90;;;;;;6169808;23;20721;-95
2021/03/06 05:00:08;;;;;;;6.93;4.30;;;1.90;99.90;;;;;;6168949;23;20472;-95
2021/03/06 05:02:35;;;;;;;6.93;4.70;;;1.90;99.90;;;;;;6169483;23;20419;-93
2021/03/06 05:05:05;;;;;;;4.80;4.17;;;1.90;99.90;;;;;;6163321;23;20954;-93
2021/03/06 05:07:33;;;;;;;6.50;4.60;;;1.90;99.90;;;;;;6162398;23;20446;-93
2021/03/06 05:10:00;;;;;;;4.67;4.27;;;1.90;99.90;;;;;;6162909;23;20452;-93
2021/03/06 05:12:29;;;;;;;6.13;3.63;;;1.90;99.90;;;;;;6162917;23;20451;-93
2021/03/06 05:14:57;;;;;;;4.87;3.80;;;1.90;99.90;;;;;;6162702;23;20800;-93
2021/03/06 05:17:24;;;;;;;5.70;4.33;;;1.90;99.90;;;;;;6175023;23;20425;-93
2021/03/06 05:19:52;;;;;;;5.50;3.83;;;1.90;99.90;;;;;;6187935;23;20427;-94
2021/03/06 05:22:19;;;;;;;8.53;4.10;;;1.90;99.90;;;;;;6184807;23;20419;-93
2021/03/06 05:24:48;;;;;;;5.50;4.10;;;1.90;99.90;;;;;;6163464;23;20543;-93
2021/03/06 05:27:30;;;;;;;5.57;3.63;;;1.90;99.90;;;;;;6162684;23;20417;-93
2021/03/06 05:29:59;;;;;;;4.20;3.80;;;1.90;99.90;;;;;;6162326;23;20448;-93
2021/03/06 05:32:27;;;;;;;8.90;4.50;;;1.80;99.90;;;;;;6162634;23;20431;-93
2021/03/06 05:34:55;;;;;;;6.10;4.33;;;1.90;99.90;;;;;;6162981;23;20418;-93
2021/03/06 05:37:23;;;;;;;5.83;4.43;;;1.90;99.90;;;;;;6162604;23;20482;-93
2021/03/06 05:39:50;;;;;;;6.23;3.27;;;1.90;99.90;;;;;;6162617;23;20441;-93
2021/03/06 05:42:18;;;;;;;5.40;3.93;;;2.00;99.90;;;;;;6162506;23;20422;-93
2021/03/06 05:44:46;;;;;;;3.93;3.50;;;2.00;99.90;;;;;;6162494;23;20450;-93
2021/03/06 05:47:14;;;;;;;5.13;3.50;;;2.00;99.90;;;;;;6162675;23;20415;-93
2021/03/06 05:49:42;;;;;;;5.33;3.40;;;2.00;99.90;;;;;;6163320;23;20432;-93
2021/03/06 05:52:10;;;;;;;4.47;3.77;;;2.00;99.90;;;;;;6162308;23;20409;-93
2021/03/06 05:54:38;;;;;;;6.13;4.07;;;2.00;99.90;;;;;;6162436;23;20421;-93
2021/03/06 05:57:06;;;;;;;6.23;4.40;;;2.00;99.90;;;;;;6162367;23;20502;-93
2021/03/06 05:59:35;;;;;;;7.03;3.70;;;2.00;99.90;;;;;;6162281;23;20421;-92
2021/03/06 06:02:02;;;;;;;4.50;4.10;;;2.00;99.90;;;;;;6162469;23;20427;-93
2021/03/06 06:04:32;;;;;;;5.80;4.00;;;2.00;99.90;;;;;;6162407;23;20444;-93
2021/03/06 06:07:02;;;;;;;4.53;3.67;;;2.00;99.90;;;;;;6162914;23;20422;-93
2021/03/06 06:09:30;;;;;;;5.87;3.80;;;2.00;99.90;;;;;;6162016;23;20412;-93
2021/03/06 06:11:58;;;;;;;5.10;4.13;;;2.10;99.90;;;;;;6163889;23;20893;-93
2021/03/06 06:14:38;;;;;;;4.50;4.00;;;2.10;99.90;;;;;;6162832;23;20410;-93
2021/03/06 06:17:06;;;;;;;5.60;4.53;;;2.10;99.90;;;;;;6163404;23;20487;-93
2021/03/06 06:19:36;;;;;;;5.07;3.87;;;2.10;99.90;;;;;;6164613;23;20425;-93
2021/03/06 06:22:16;;;;;;;7.70;5.10;;;2.10;99.90;;;;;;6164870;23;20478;-93
2021/03/06 06:24:44;;;;;;;11.10;5.40;;;2.10;99.90;;;;;;6167082;23;20440;-93
2021/03/06 06:27:12;;;;;;;5.40;3.97;;;2.10;99.90;;;;;;6167950;23;20470;-93
2021/03/06 06:29:41;;;;;;;8.40;4.77;;;2.10;99.90;;;;;;6166797;23;20818;-93
2021/03/06 06:32:10;;;;;;;6.57;3.97;;;2.10;99.90;;;;;;6166507;23;20411;-93
2021/03/06 06:34:39;;;;;;;5.10;4.00;;;2.10;99.90;;;;;;6164969;23;20430;-93
2021/03/06 06:37:16;;;;;;;5.40;3.90;;;2.20;99.90;;;;;;6164812;23;20419;-93
2021/03/06 06:39:44;;;;;;;4.43;4.03;;;2.20;99.90;;;;;;6164969;23;20443;-93
2021/03/06 06:42:11;;;;;;;5.97;4.17;;;2.20;99.90;;;;;;6164722;23;20449;-92
2021/03/06 06:44:39;;;;;;;6.30;4.50;;;2.20;99.90;;;;;;6165294;23;20420;-93
2021/03/06 06:47:12;;;;;;;6.43;4.23;;;2.20;99.90;;;;;;6164557;23;20771;-93
2021/03/06 06:49:48;;;;;;;5.63;4.10;;;2.30;99.90;;;;;;6165049;23;20413;-93
2021/03/06 06:52:18;;;;;;;6.53;4.60;;;2.30;99.90;;;;;;6165807;23;20415;-93
2021/03/06 06:54:56;;;;;;;7.33;4.63;;;2.40;99.90;;;;;;6164925;23;20450;-93
2021/03/06 06:57:26;;;;;;;5.10;4.30;;;2.30;99.90;;;;;;6164658;23;20470;-93
2021/03/06 06:59:56;;;;;;;7.00;5.00;;;2.30;99.90;;;;;;6165261;23;20514;-93
2021/03/06 07:02:24;;;;;;;7.33;4.80;;;2.30;99.90;;;;;;6164173;23;20414;-93
2021/03/06 07:04:54;;;;;;;6.47;3.93;;;2.40;99.90;;;;;;6164211;23;20448;-93
2021/03/06 07:07:23;;;;;;;4.60;4.20;;;2.40;99.90;;;;;;6165321;23;20761;-92
2021/03/06 07:09:59;;;;;;;6.10;5.37;;;2.40;99.90;;;;;;6164201;23;20779;-92
2021/03/06 07:12:28;;;;;;;7.00;5.00;;;2.40;99.90;;;;;;6163996;23;20506;-93
2021/03/06 07:14:56;;;;;;;6.17;4.90;;;2.40;99.90;;;;;;6164843;23;20446;-92
2021/03/06 07:17:24;;;;;;;8.10;5.23;;;2.50;99.90;;;;;;6164605;23;20422;-92
2021/03/06 07:19:53;;;;;;;5.23;4.77;;;2.50;99.90;;;;;;6164083;23;21012;-93
2021/03/06 07:22:28;;;;;;;7.53;5.30;;;2.50;99.90;;;;;;6164268;23;20917;-92
2021/03/06 07:24:55;;;;;;;7.50;5.50;;;2.50;99.90;;;;;;6164198;23;20496;-93
2021/03/06 07:27:23;;;;;;;7.33;5.23;;;2.60;99.90;;;;;;6164329;23;20454;-92
2021/03/06 07:29:50;;;;;;;8.13;5.27;;;2.60;99.90;;;;;;6164132;23;20461;-93
2021/03/06 07:32:23;;;;;;;8.90;5.30;;;2.70;99.90;;;;;;6171786;23;20424;-92
2021/03/06 07:34:59;;;;;;;8.07;5.60;;;2.80;99.90;;;;;;6179371;23;20410;-93
2021/03/06 07:37:28;;;;;;;8.80;4.90;;;2.80;99.90;;;;;;6169543;23;20736;-93
2021/03/06 07:39:57;;;;;;;6.87;5.30;;;2.80;99.90;;;;;;6165843;23;20447;-93
2021/03/06 07:42:30;;;;;;;8.17;5.80;;;2.80;99.90;;;;;;6166097;23;20411;-92
2021/03/06 07:44:58;;;;;;;7.93;6.80;;;2.90;99.90;;;;;;6166307;23;20439;-93
2021/03/06 07:47:30;;;;;;;9.10;6.00;;;2.90;99.90;;;;;;6165389;23;20465;-93
2021/03/06 07:50:03;;;;;;;9.10;6.13;;;2.90;99.90;;;;;;6164531;23;20443;-93
2021/03/06 07:52:32;;;;;;;7.70;6.03;;;3.00;99.90;;;;;;6165143;23;20503;-93
2021/03/06 07:55:02;;;;;;;8.83;5.37;;;3.00;99.90;;;;;;6166757;23;20418;-95
2021/03/06 07:57:29;;;;;;;10.83;6.07;;;3.00;99.90;;;;;;6174204;23;20421;-96
2021/03/06 08:00:00;;;;;;;10.30;5.30;;;3.00;99.90;;;;;;6178344;23;20446;-95
2021/03/06 08:02:32;;;;;;;6.50;5.80;;;3.00;99.90;;;;;;6174671;23;20411;-95
2021/03/06 08:05:29;;;;;;;8.23;5.40;;;3.00;99.90;;;;;;6172632;23;20514;-95
2021/03/06 08:07:56;;;;;;;8.23;6.43;;;3.10;99.90;;;;;;6175454;23;20443;-95
2021/03/06 08:10:23;;;;;;;6.70;5.80;;;3.10;99.90;;;;;;6176728;23;20537;-95
2021/03/06 08:12:51;;;;;;;6.40;5.73;;;3.10;99.90;;;;;;6178023;23;20407;-96
2021/03/06 08:15:32;;;;;;;7.50;5.70;;;3.20;99.90;;;;;;6177304;23;20425;-95
2021/03/06 08:18:01;;;;;;;6.53;5.83;;;3.20;99.90;;;;;;6176962;23;20476;-96
2021/03/06 08:20:34;;;;;;;7.37;6.13;;;3.20;99.90;;;;;;6177456;23;20439;-96
2021/03/06 08:23:22;;;;;;;9.93;6.00;;;3.30;99.90;;;;;;6183913;23;20419;-96
2021/03/06 08:26:28;;;;;;;9.77;6.77;;;3.30;99.90;;;;;;6179674;23;20442;-95
2021/03/06 08:29:20;;;;;;;12.27;6.40;;;3.30;99.90;;;;;;6180304;23;20399;-96
2021/03/06 08:31:54;;;;;;;11.00;6.40;;;3.30;99.90;;;;;;6180934;23;20422;-95
2021/03/06 08:34:30;;;;;;;6.83;5.40;;;3.50;99.90;;;;;;6183762;23;20160;-96
2021/03/06 08:37:36;;;;;;;6.40;5.80;;;3.50;99.90;;;;;;6183243;23;20415;-95
2021/03/06 08:40:07;;;;;;;8.13;6.90;;;3.50;99.90;;;;;;6182147;23;20432;-96
2021/03/06 08:42:36;;;;;;;9.50;6.07;;;3.60;99.90;;;;;;6176191;23;20423;-96
2021/03/06 08:45:06;;;;;;;7.03;5.90;;;3.70;99.90;;;;;;6177385;23;20435;-96
2021/03/06 08:47:35;;;;;;;6.83;5.67;;;3.70;99.90;;;;;;6178336;23;20415;-95
2021/03/06 08:50:07;;;;;;;10.43;6.70;;;3.70;99.90;;;;;;6178219;23;20446;-95
2021/03/06 08:52:35;;;;;;;6.73;5.93;;;3.70;99.90;;;;;;6177135;23;20403;-96
2021/03/06 08:55:05;;;;;;;9.50;5.70;;;3.80;99.90;;;;;;6172180;23;20422;-96
2021/03/06 08:57:34;;;;;;;6.40;5.80;;;3.80;99.90;;;;;;6174710;23;20419;-96
2021/03/06 09:00:20;;;;;;;5.97;4.80;;;3.90;99.90;;;;;;6182576;23;20494;-96
2021/03/06 09:02:47;;;;;;;9.00;6.50;;;3.90;99.90;;;;;;6171162;23;20412;-96
2021/03/06 09:05:18;;;;;;;6.73;5.63;;;4.00;99.90;;;;;;6172038;23;20486;-96
2021/03/06 09:07:47;;;;;;;6.70;5.40;;;4.10;99.90;;;;;;6172283;23;20442;-95
2021/03/06 09:10:25;;;;;;;6.80;4.80;;;4.10;99.90;;;;;;6171939;23;20443;-96
2021/03/06 09:12:55;;;;;;;6.20;4.80;;;4.20;99.90;;;;;;6172186;23;20411;-95
2021/03/06 09:15:45;;;;;;;6.37;4.97;;;4.20;99.90;;;;;;6171830;23;20407;-95
2021/03/06 09:18:15;;;;;;;8.60;4.77;;;4.30;99.90;;;;;;6168826;23;20446;-96
2021/03/06 09:20:54;;;;;;;7.27;4.40;;;4.40;99.90;;;;;;6169470;23;20442;-95
2021/03/06 09:23:31;;;;;;;8.73;4.80;;;4.40;99.90;;;;;;6165103;23;20430;-94
2021/03/06 09:26:03;;;;;;;7.90;5.40;;;4.50;99.90;;;;;;6163480;23;20431;-95
2021/03/06 09:28:32;;;;;;;6.70;5.43;;;4.60;99.90;;;;;;6165160;23;20404;-95
2021/03/06 09:31:02;;;;;;;10.53;4.77;;;4.60;99.90;;;;;;6163943;23;20498;-94
2021/03/06 09:33:34;;;;;;;5.67;4.30;;;4.80;99.90;;;;;;6180341;23;20395;-95
2021/03/06 09:36:15;;;;;;;;;;;;;;;;;;;;;
2021/03/06 09:39:00;;;;;;;4.73;4.27;;;4.80;99.90;;;;;;6189148;23;20391;-94
2021/03/06 09:41:42;;;;;;;5.20;4.53;;;4.80;99.90;;;;;;6186667;23;20436;-95
2021/03/06 09:44:19;;;;;;;6.53;5.23;;;4.90;99.90;;;;;;6184486;23;20402;-96
2021/03/06 09:47:07;;;;;;;8.97;5.60;;;4.90;99.90;;;;;;6188227;23;20571;-96
2021/03/06 09:49:40;;;;;;;5.20;4.53;;;4.90;99.90;;;;;;6185276;23;20407;-96
2021/03/06 09:52:21;;;;;;;;;;;;;;;;;;;;;
2021/03/06 09:54:48;;;;;;;5.27;4.60;;;5.00;99.90;;;;;;6161655;23;20458;-96
2021/03/06 09:57:25;;;;;;;7.10;5.10;;;5.10;99.90;;;;;;6172421;23;20442;-95
2021/03/06 09:59:59;;;;;;;8.10;4.60;;;5.10;99.90;;;;;;6169906;23;20439;-96
2021/03/06 10:02:53;;;;;;;9.63;4.90;;;5.20;99.90;;;;;;6198645;23;20443;-96
2021/03/06 10:05:24;;;;;;;5.40;4.90;;;5.20;99.90;;;;;;6166934;23;20431;-95
2021/03/06 10:07:55;;;;;;;10.97;5.13;;;5.30;99.90;;;;;;6166822;23;20419;-95
2021/03/06 10:10:33;;;;;;;8.57;5.37;;;5.30;99.90;;;;;;6165597;23;20443;-95
2021/03/06 10:13:13;;;;;;;;;;;;;;;;;;;;;
2021/03/06 10:15:46;;;;;;;7.80;5.30;;;5.40;99.90;;;;;;6165078;23;20425;-95
2021/03/06 10:18:17;;;;;;;5.50;4.53;;;5.40;99.90;;;;;;6164976;23;20435;-95
2021/03/06 10:20:55;;;;;;;6.93;4.90;;;5.40;99.90;;;;;;6168016;23;20439;-95
2021/03/06 10:23:35;;;;;;;7.30;5.10;;;5.50;99.90;;;;;;6167130;23;20423;-95
2021/03/06 10:26:26;;;;;;;7.37;4.87;;;5.60;99.90;;;;;;6166703;23;20434;-95
2021/03/06 10:29:18;;;;;;;7.37;5.20;;;5.60;99.90;;;;;;6167811;23;20415;-95
2021/03/06 10:31:46;;;;;;;9.00;5.73;;;5.60;99.90;;;;;;6167752;23;20439;-95
2021/03/06 10:34:22;;;;;;;8.17;6.13;;;5.60;99.90;;;;;;6170814;23;20415;-95
2021/03/06 10:37:14;;;;;;;5.97;5.47;;;5.60;99.90;;;;;;6167490;23;20419;-95
2021/03/06 10:39:59;;;;;;;4.77;3.90;;;5.60;99.90;;;;;;6167885;23;20487;-95
2021/03/06 10:42:41;;;;;;;5.20;4.30;;;5.70;99.90;;;;;;6167442;23;20415;-95
2021/03/06 10:45:24;;;;;;;4.13;3.83;;;5.70;99.90;;;;;;6171900;23;20442;-95
2021/03/06 10:47:54;;;;;;;5.57;5.07;;;5.70;99.90;;;;;;6170296;23;20414;-95
2021/03/06 10:50:31;;;;;;;6.87;4.67;;;5.80;99.90;;;;;;6175207;23;20439;-95
2021/03/06 10:53:22;;;;;;;5.80;5.20;;;5.80;99.90;;;;;;6174488;23;20407;-94
2021/03/06 10:56:15;;;;;;;5.80;5.10;;;5.80;99.90;;;;;;6168202;23;20416;-94
2021/03/06 10:58:44;;;;;;;5.50;5.00;;;6.00;99.90;;;;;;6165987;23;20925;-95
2021/03/06 11:01:44;;;;;;;7.33;5.10;;;6.00;99.90;;;;;;6164690;23;20436;-94
2021/03/06 11:04:32;;;;;;;5.23;4.83;;;6.00;99.90;;;;;;6168250;23;20906;-94
2021/03/06 11:07:07;;;;;;;6.73;5.53;;;6.10;99.90;;;;;;6166447;23;20435;-94
2021/03/06 11:09:38;;;;;;;5.87;4.80;;;6.10;99.90;;;;;;6166188;23;20428;-95
2021/03/06 11:12:19;;;;;;;4.90;3.90;;;6.20;99.90;;;;;;6163933;23;20478;-94
2021/03/06 11:14:47;;;;;;;5.80;3.37;;;6.20;99.90;;;;;;6163564;23;20411;-94
2021/03/06 11:17:18;;;;;;;4.33;3.93;;;6.30;99.90;;;;;;6166536;23;20443;-93
2021/03/06 11:19:49;;;;;;;5.60;5.10;;;6.30;99.90;;;;;;6167378;23;20443;-93
2021/03/06 11:22:17;;;;;;;5.33;4.27;;;6.30;99.90;;;;;;6175757;23;20436;-93
2021/03/06 11:24:45;;;;;;;4.50;4.10;;;6.30;99.90;;;;;;6171443;23;20449;-94
2021/03/06 11:27:13;;;;;;;5.23;4.57;;;6.30;99.90;;;;;;6166124;23;20464;-93
2021/03/06 11:29:43;;;;;;;5.93;4.40;;;6.20;99.90;;;;;;6165474;23;20447;-94
2021/03/06 11:32:10;;;;;;;7.00;4.50;;;6.20;99.90;;;;;;6163837;23;20482;-95
2021/03/06 11:34:39;;;;;;;3.77;3.40;;;6.30;99.90;;;;;;6165407;23;20172;-94
2021/03/06 11:37:06;;;;;;;5.03;4.20;;;6.30;99.90;;;;;;6165008;23;20475;-94
2021/03/06 11:39:34;;;;;;;4.50;3.90;;;6.30;99.90;;;;;;6164644;23;20412;-93
2021/03/06 11:42:01;;;;;;;6.97;5.05;;;6.10;99.90;;;;;;6163359;23;20426;-94
2021/03/06 11:44:29;;;;;;;5.37;4.00;;;6.30;99.90;;;;;;6165283;23;20176;-94
2021/03/06 11:46:56;;;;;;;8.37;4.97;;;6.30;99.90;;;;;;6166098;23;20436;-94
2021/03/06 11:49:23;;;;;;;6.53;4.97;;;6.30;99.90;;;;;;6164379;23;20808;-94
2021/03/06 11:51:52;;;;;;;6.70;5.33;;;6.30;99.90;;;;;;6165523;23;20424;-94
2021/03/06 11:54:20;;;;;;;7.30;5.10;;;6.30;99.90;;;;;;6171366;23;20415;-94
2021/03/06 11:56:47;;;;;;;8.33;4.97;;;6.40;99.90;;;;;;6183897;23;20424;-94
2021/03/06 11:59:15;;;;;;;5.37;4.00;;;6.40;99.90;;;;;;6185657;23;20419;-94
2021/03/06 12:01:42;;;;;;;6.90;4.57;;;6.50;99.90;;;;;;6168411;23;20478;-94
2021/03/06 12:04:09;;;;;;;4.37;3.97;;;6.60;99.90;;;;;;6166369;23;20503;-94
2021/03/06 12:06:37;;;;;;;4.63;4.23;;;6.60;99.90;;;;;;6166373;23;20524;-95
2021/03/06 12:09:06;;;;;;;5.83;4.20;;;6.60;99.90;;;;;;6166660;23;20483;-94
2021/03/06 12:11:34;;;;;;;2.40;1.63;;;6.60;99.90;;;;;;6166511;23;20448;-94
2021/03/06 12:14:01;;;;;;;2.40;1.60;;;6.60;99.90;;;;;;6167156;23;20506;-94
2021/03/06 12:16:29;;;;;;;3.20;2.53;;;6.50;99.90;;;;;;6165065;23;20516;-95
2021/03/06 12:18:56;;;;;;;2.93;1.60;;;6.40;99.90;;;;;;6165535;23;20519;-95
2021/03/06 12:21:24;;;;;;;1.87;1.50;;;6.30;99.90;;;;;;6165535;23;20450;-95
2021/03/06 12:23:51;;;;;;;1.60;1.30;;;6.30;99.90;;;;;;6166492;23;20413;-94
2021/03/06 12:26:20;;;;;;;1.50;1.20;;;6.30;99.90;;;;;;6166764;23;20438;-94
2021/03/06 12:28:50;;;;;;;1.40;1.27;;;6.30;99.90;;;;;;6168270;23;20482;-95
2021/03/06 12:31:17;;;;;;;1.60;1.20;;;6.30;99.90;;;;;;6166082;23;20446;-95
2021/03/06 12:33:45;;;;;;;1.60;1.20;;;6.30;99.90;;;;;;6165267;23;20404;-95
2021/03/06 12:36:13;;;;;;;2.03;1.30;;;6.30;99.90;;;;;;6165195;23;20417;-94
2021/03/06 12:38:40;;;;;;;1.97;1.63;;;6.30;99.90;;;;;;6167230;23;20404;-94
2021/03/06 12:41:07;;;;;;;1.77;1.57;;;6.30;99.90;;;;;;6164700;23;20445;-95
2021/03/06 12:43:35;;;;;;;3.13;1.97;;;6.30;99.90;;;;;;6165049;23;20419;-95
2021/03/06 12:46:03;;;;;;;2.57;1.80;;;6.30;99.90;;;;;;6170044;23;20473;-95
2021/03/06 12:48:34;;;;;;;3.93;1.70;;;6.30;99.90;;;;;;6166857;23;20408;-94
2021/03/06 12:51:02;;;;;;;3.50;1.93;;;6.50;99.90;;;;;;6166710;23;20445;-95
2021/03/06 12:53:30;;;;;;;2.23;1.60;;;6.50;99.90;;;;;;6165448;23;20510;-95
2021/03/06 12:55:57;;;;;;;2.83;1.57;;;6.50;99.90;;;;;;6165767;23;20614;-94
2021/03/06 12:58:24;;;;;;;3.10;1.57;;;6.60;99.90;;;;;;6166159;23;20915;-94
2021/03/06 13:00:53;;;;;;;2.30;1.47;;;6.60;99.90;;;;;;6165658;23;20511;-94
2021/03/06 13:03:21;;;;;;;3.30;1.57;;;6.60;99.90;;;;;;6165452;23;20441;-94
2021/03/06 13:05:49;;;;;;;1.47;1.13;;;6.70;99.90;;;;;;6165472;23;20449;-94
2021/03/06 13:08:16;;;;;;;5.73;1.67;;;6.70;99.90;;;;;;6165619;23;20415;-94
2021/03/06 13:10:43;;;;;;;1.87;1.60;;;6.80;99.90;;;;;;6166873;23;20442;-95
2021/03/06 13:13:11;;;;;;;3.20;1.50;;;6.80;99.90;;;;;;6166592;23;20446;-94
2021/03/06 13:15:38;;;;;;;1.60;1.47;;;6.80;99.90;;;;;;6168905;23;20457;-94
2021/03/06 13:18:10;;;;;;;2.70;1.60;;;6.80;99.90;;;;;;6166128;23;20447;-94
2021/03/06 13:20:38;;;;;;;2.40;1.30;;;6.80;99.90;;;;;;6170007;23;20447;-95
2021/03/06 13:23:06;;;;;;;3.27;1.80;;;6.80;99.90;;;;;;6168869;23;20424;-95